Time;durP1;ratioP1;P1;durP2;ratioP2;P2;SDS_P1;SDS_P2;PMS_P1;PMS_P2;Temp;Humidity;BMP_temperature;BMP_pressure;BME280_temperature;BME280_humidity;BME280_pressure;Samples;Min_cycle;Max_cycle;Signal;HPM_P1;HPM_P2
2020/12/03 07:24:55;;;;;;;6.78;0.75;;;17.70;69.30;;;;;;5104594;27;20355;-42
2020/12/03 07:27:41;;;;;;;3.70;0.90;;;17.70;69.70;;;;;;5086044;28;20355;-47
2020/12/03 07:30:07;;;;;;;11.27;1.17;;;17.70;69.80;;;;;;5097053;28;20028;-49
2020/12/03 07:32:56;;;;;;;5.05;0.65;;;17.70;69.40;;;;;;5085781;28;20020;-48
2020/12/03 07:35:48;;;;;;;2.08;0.70;;;17.70;69.20;;;;;;5085620;28;20100;-45
2020/12/03 07:38:26;;;;;;;5.38;0.80;;;17.70;69.00;;;;;;5109814;27;20027;-46
2020/12/03 07:40:52;;;;;;;4.18;0.70;;;17.70;69.60;;;;;;5090587;28;20028;-51
2020/12/03 07:43:38;;;;;;;4.25;0.93;;;17.70;70.20;;;;;;5114203;27;20130;-63
2020/12/03 07:46:29;;;;;;;2.85;0.75;;;17.80;72.60;;;;;;5052201;28;20067;-62
2020/12/03 07:48:55;;;;;;;2.85;0.75;;;18.10;70.20;;;;;;5046534;28;20045;-61
2020/12/03 07:51:20;;;;;;;3.22;0.93;;;18.00;71.00;;;;;;5038369;28;20049;-60
2020/12/03 07:53:46;;;;;;;4.55;0.77;;;17.90;71.60;;;;;;5038144;28;20041;-60
2020/12/03 07:56:24;;;;;;;1.52;0.80;;;17.90;72.50;;;;;;5040223;28;20056;-61
2020/12/03 07:58:50;;;;;;;3.42;0.73;;;17.90;71.10;;;;;;5039295;28;20045;-60
2020/12/03 08:01:31;;;;;;;4.13;0.75;;;17.90;72.90;;;;;;5041220;28;20033;-60
2020/12/03 08:04:08;;;;;;;3.65;0.63;;;17.90;74.80;;;;;;5040300;28;20046;-60
2020/12/03 08:06:37;;;;;;;4.65;0.88;;;17.90;74.90;;;;;;5040532;28;20094;-61
2020/12/03 08:09:03;;;;;;;5.32;1.80;;;17.80;74.40;;;;;;5038289;28;20037;-61
2020/12/03 08:11:42;;;;;;;3.72;1.33;;;17.80;74.30;;;;;;5043508;28;20091;-60
2020/12/03 08:14:26;;;;;;;5.32;1.42;;;17.80;74.10;;;;;;5046680;28;20060;-61
2020/12/03 08:16:52;;;;;;;7.07;1.92;;;17.80;73.30;;;;;;5049037;28;20120;-61
2020/12/03 08:19:24;;;;;;;3.38;1.10;;;17.80;72.80;;;;;;5062221;28;20452;-60
2020/12/03 08:21:50;;;;;;;6.18;1.40;;;17.80;72.60;;;;;;5030484;28;20527;-60
2020/12/03 08:24:26;;;;;;;3.20;1.00;;;17.80;72.40;;;;;;5049940;28;20060;-60
2020/12/03 08:26:59;;;;;;;4.00;1.10;;;17.80;72.00;;;;;;5061696;28;20055;-60
2020/12/03 08:29:37;;;;;;;5.13;1.10;;;17.80;70.80;;;;;;5049971;28;20458;-60
2020/12/03 08:32:02;;;;;;;1.98;0.80;;;17.90;70.30;;;;;;5038676;28;20069;-61
2020/12/03 08:34:45;;;;;;;2.05;0.80;;;17.90;69.90;;;;;;5050825;28;20069;-62
2020/12/03 08:37:16;;;;;;;2.22;0.93;;;17.90;70.10;;;;;;5048568;28;20051;-60
2020/12/03 08:39:43;;;;;;;2.38;1.10;;;17.90;70.00;;;;;;5032529;28;20052;-62
2020/12/03 08:42:09;;;;;;;5.47;1.08;;;17.80;70.10;;;;;;5048062;28;20036;-62
2020/12/03 08:44:35;;;;;;;1.90;0.90;;;17.90;70.00;;;;;;5030850;28;20045;-63
2020/12/03 08:47:04;;;;;;;3.20;0.98;;;17.90;70.00;;;;;;5028256;28;20034;-60
2020/12/03 08:49:30;;;;;;;4.68;0.88;;;17.90;69.90;;;;;;5026591;28;20049;-61
2020/12/03 08:51:58;;;;;;;3.00;0.90;;;17.90;70.00;;;;;;5043135;28;20060;-61
2020/12/03 08:54:29;;;;;;;6.03;1.15;;;17.90;70.00;;;;;;5049044;28;20044;-60
2020/12/03 08:57:08;;;;;;;4.07;0.90;;;17.90;70.00;;;;;;5035978;28;20045;-60
2020/12/03 08:59:35;;;;;;;1.70;0.95;;;17.80;69.80;;;;;;5008175;28;20038;-60
2020/12/03 09:02:07;;;;;;;5.57;1.05;;;17.80;69.80;;;;;;5022646;28;20042;-60
2020/12/03 09:04:35;;;;;;;2.80;0.95;;;17.80;69.80;;;;;;5023646;28;20048;-60
2020/12/03 09:07:02;;;;;;;3.10;0.65;;;17.90;69.60;;;;;;5024056;28;20504;-59
2020/12/03 09:09:28;;;;;;;3.03;0.80;;;17.80;69.40;;;;;;5007136;28;20512;-59
2020/12/03 09:11:54;;;;;;;3.70;0.80;;;17.90;69.10;;;;;;5014058;28;20037;-60
2020/12/03 09:14:19;;;;;;;1.17;0.70;;;17.90;69.20;;;;;;5031619;28;20063;-61
2020/12/03 09:16:51;;;;;;;3.55;0.70;;;17.80;69.20;;;;;;5029316;28;20417;-60
2020/12/03 09:19:27;;;;;;;0.98;0.70;;;17.80;69.20;;;;;;5064659;28;20048;-60
2020/12/03 09:21:52;;;;;;;1.65;0.68;;;17.80;69.20;;;;;;5049087;28;20500;-60
2020/12/03 09:24:23;;;;;;;4.55;0.82;;;17.80;69.20;;;;;;5010178;28;20080;-59
2020/12/03 09:26:48;;;;;;;2.33;0.75;;;17.90;69.00;;;;;;5027195;28;20072;-59
2020/12/03 09:29:14;;;;;;;2.05;1.00;;;17.90;68.90;;;;;;5026271;28;20072;-59
2020/12/03 09:31:40;;;;;;;2.13;1.42;;;17.90;68.50;;;;;;5027782;28;20053;-60
2020/12/03 09:34:06;;;;;;;1.85;1.20;;;17.90;68.70;;;;;;5048966;28;20060;-60
2020/12/03 09:36:32;;;;;;;3.50;1.42;;;18.00;68.20;;;;;;5008498;28;20500;-60
2020/12/03 09:39:01;;;;;;;1.10;0.68;;;18.00;68.50;;;;;;5030995;28;20073;-60
2020/12/03 09:41:26;;;;;;;4.07;2.05;;;18.00;67.90;;;;;;5022301;28;20049;-61
2020/12/03 09:43:54;;;;;;;2.78;1.10;;;18.00;68.40;;;;;;5015129;28;20053;-61
2020/12/03 09:46:25;;;;;;;2.70;1.02;;;18.10;68.20;;;;;;5032447;28;20046;-61
2020/12/03 09:48:53;;;;;;;2.95;1.23;;;18.10;67.80;;;;;;5009227;28;20049;-59
2020/12/03 09:51:28;;;;;;;2.20;1.20;;;18.10;67.60;;;;;;5029873;28;20046;-61
2020/12/03 09:53:54;;;;;;;1.15;0.95;;;18.10;67.70;;;;;;5030872;28;20033;-58
2020/12/03 09:56:20;;;;;;;1.30;1.13;;;18.10;67.80;;;;;;5027079;28;20325;-59
2020/12/03 09:58:46;;;;;;;16.58;11.40;;;18.10;67.80;;;;;;5046885;28;20049;-58
2020/12/03 10:01:13;;;;;;;10.50;7.65;;;18.10;68.00;;;;;;5050907;28;20591;-57
2020/12/03 10:04:08;;;;;;;9.73;7.70;;;18.10;68.00;;;;;;5046564;28;20075;-60
2020/12/03 10:06:38;;;;;;;11.63;8.18;;;18.10;67.90;;;;;;5041190;28;20072;-58
2020/12/03 10:09:16;;;;;;;8.50;4.80;;;18.10;68.10;;;;;;5031245;28;20135;-59
2020/12/03 10:12:03;;;;;;;7.47;4.45;;;18.10;67.20;;;;;;5043615;28;20029;-60
2020/12/03 10:14:47;;;;;;;5.68;4.78;;;18.20;67.10;;;;;;5052189;28;20132;-57
2020/12/03 10:17:17;;;;;;;7.47;4.38;;;18.20;66.90;;;;;;5046704;28;20133;-59
2020/12/03 10:19:44;;;;;;;5.43;4.72;;;18.20;67.00;;;;;;5029128;28;25524;-60
2020/12/03 10:22:18;;;;;;;5.05;4.65;;;18.20;67.00;;;;;;5032197;28;20579;-60
2020/12/03 10:25:19;;;;;;;5.90;5.30;;;18.20;67.10;;;;;;5047193;28;20147;-59
2020/12/03 10:28:01;;;;;;;6.28;4.90;;;18.20;67.10;;;;;;5046421;28;20080;-50
2020/12/03 10:30:35;;;;;;;5.60;5.00;;;18.20;67.30;;;;;;5027864;28;20086;-57
2020/12/03 10:33:02;;;;;;;5.53;4.33;;;18.30;67.00;;;;;;5030963;28;20033;-59
2020/12/03 10:35:28;;;;;;;4.70;4.30;;;18.20;67.00;;;;;;5030237;28;20888;-57
2020/12/03 10:37:58;;;;;;;4.75;4.35;;;18.30;67.10;;;;;;5048160;28;20029;-57
2020/12/03 10:40:24;;;;;;;4.60;4.20;;;18.30;67.00;;;;;;5031754;28;20036;-60
2020/12/03 10:43:01;;;;;;;4.93;4.40;;;18.30;67.00;;;;;;5014923;28;20060;-56
2020/12/03 10:45:30;;;;;;;4.47;4.10;;;18.40;66.80;;;;;;5043807;28;20041;-59
2020/12/03 10:48:05;;;;;;;4.72;4.18;;;18.40;66.60;;;;;;5040950;28;20049;-55
2020/12/03 10:50:53;;;;;;;3.97;3.60;;;18.40;67.10;;;;;;5025171;28;20037;-58
2020/12/03 10:53:25;;;;;;;4.03;3.60;;;18.40;67.50;;;;;;5041594;28;20527;-59
2020/12/03 10:55:59;;;;;;;4.18;3.80;;;18.40;68.70;;;;;;5046036;28;20037;-55
2020/12/03 10:58:32;;;;;;;4.82;3.70;;;18.40;68.10;;;;;;5028182;28;20415;-54
2020/12/03 11:01:02;;;;;;;6.07;5.57;;;18.40;68.50;;;;;;5061632;28;20041;-56
2020/12/03 11:03:28;;;;;;;12.18;8.75;;;18.40;68.70;;;;;;5005536;28;20128;-58
2020/12/03 11:05:55;;;;;;;24.90;11.30;;;18.40;68.90;;;;;;5025250;28;20564;-60
2020/12/03 11:08:21;;;;;;;21.27;10.13;;;18.50;69.10;;;;;;5005032;28;20128;-54
2020/12/03 11:10:46;;;;;;;16.70;7.30;;;18.40;68.60;;;;;;5033693;28;20128;-56
2020/12/03 11:13:18;;;;;;;8.75;5.60;;;18.40;68.20;;;;;;5006503;28;20063;-59
2020/12/03 11:15:44;;;;;;;8.82;5.28;;;18.40;68.00;;;;;;5012588;28;20120;-56
2020/12/03 11:18:13;;;;;;;10.98;5.05;;;18.40;67.60;;;;;;5029903;28;20531;-59
2020/12/03 11:20:38;;;;;;;7.93;4.47;;;18.40;67.70;;;;;;5028207;28;20118;-59
2020/12/03 11:23:13;;;;;;;10.93;4.40;;;18.40;67.80;;;;;;5046579;28;20507;-57
2020/12/03 11:25:38;;;;;;;;;;;18.40;67.70;;;;;;5027893;28;20076;-57
2020/12/03 11:28:10;;;;;;;7.32;3.67;;;18.40;67.70;;;;;;5049086;28;19960;-57
2020/12/03 11:30:35;;;;;;;5.65;3.22;;;18.40;67.60;;;;;;5028230;28;20408;-57
2020/12/03 11:33:01;;;;;;;3.92;3.20;;;18.50;67.70;;;;;;4689339;28;10000554;-55
2020/12/03 11:35:33;;;;;;;6.40;3.53;;;18.50;67.50;;;;;;5044442;28;20443;-56
2020/12/03 11:38:03;;;;;;;4.10;3.20;;;18.50;67.50;;;;;;5043423;28;20037;-55
2020/12/03 11:40:44;;;;;;;3.25;2.95;;;18.50;67.50;;;;;;5028532;28;20059;-55
2020/12/03 11:50:37;;;;;;;3.42;2.47;;;18.50;68.30;;;;;;5045090;28;20052;-54
2020/12/03 11:53:03;;;;;;;5.55;3.17;;;18.50;68.50;;;;;;5045689;28;20071;-57
2020/12/03 11:55:29;;;;;;;2.80;2.40;;;18.50;68.40;;;;;;5043464;28;20386;-57
2020/12/03 11:58:07;;;;;;;2.83;2.22;;;18.50;68.40;;;;;;5043872;28;20500;-55
2020/12/03 12:00:33;;;;;;;2.67;2.45;;;18.60;68.30;;;;;;5040349;28;20136;-56
2020/12/03 12:03:03;;;;;;;4.30;2.53;;;18.60;68.20;;;;;;5035463;28;20121;-56
2020/12/03 12:10:43;;;;;;;6.03;2.35;;;18.60;68.20;;;;;;5043721;28;20165;-57
2020/12/03 12:13:09;;;;;;;2.63;2.40;;;18.60;68.10;;;;;;5047550;28;20040;-55
2020/12/03 12:15:34;;;;;;;2.95;2.20;;;18.60;68.00;;;;;;5044237;28;20049;-55
2020/12/03 12:18:00;;;;;;;3.60;2.25;;;18.60;68.00;;;;;;5042212;28;20055;-54
2020/12/03 12:20:25;;;;;;;2.58;2.38;;;18.60;68.10;;;;;;5044115;28;20483;-56
2020/12/03 12:22:51;;;;;;;2.92;2.15;;;18.60;68.00;;;;;;5046680;28;20037;-56
2020/12/03 12:25:17;;;;;;;3.95;2.85;;;18.60;67.90;;;;;;5045166;28;20416;-56
2020/12/03 12:27:42;;;;;;;4.15;2.10;;;18.60;67.80;;;;;;5040816;28;20084;-55
2020/12/03 12:30:08;;;;;;;5.32;2.53;;;18.60;67.90;;;;;;5042150;28;20040;-55
2020/12/03 12:32:33;;;;;;;4.53;2.17;;;18.60;68.00;;;;;;5043096;28;20072;-56
2020/12/03 12:34:59;;;;;;;6.85;1.83;;;18.60;67.80;;;;;;5047029;28;20041;-58
2020/12/03 12:37:25;;;;;;;3.85;2.08;;;18.70;67.90;;;;;;5050766;28;20056;-53
2020/12/03 12:39:50;;;;;;;1.90;1.70;;;18.70;67.80;;;;;;5035875;28;20064;-56
2020/12/03 12:42:16;;;;;;;4.63;2.20;;;18.70;67.80;;;;;;5025313;28;20041;-56
2020/12/03 12:44:41;;;;;;;4.07;1.90;;;18.80;67.60;;;;;;5024304;28;20406;-54
2020/12/03 12:47:07;;;;;;;2.47;1.50;;;18.80;67.60;;;;;;5027827;28;20050;-59
2020/12/03 12:49:34;;;;;;;2.08;1.60;;;18.80;67.50;;;;;;5042188;28;20037;-59
2020/12/03 12:52:00;;;;;;;5.18;2.03;;;18.70;67.60;;;;;;5059349;28;20098;-59
2020/12/03 12:54:26;;;;;;;1.60;1.50;;;18.80;67.60;;;;;;5055866;28;20038;-56
2020/12/03 12:56:56;;;;;;;3.20;1.58;;;18.70;67.60;;;;;;5050565;28;20389;-54
2020/12/03 12:59:22;;;;;;;9.27;2.92;;;18.80;67.50;;;;;;5036847;28;20041;-58
2020/12/03 13:01:48;;;;;;;1.50;1.40;;;18.90;67.30;;;;;;5043646;28;20045;-59
2020/12/03 13:04:17;;;;;;;3.20;1.60;;;18.80;67.10;;;;;;5031964;28;20459;-57
2020/12/03 13:06:43;;;;;;;2.63;1.80;;;18.90;67.30;;;;;;5026794;28;20073;-54
2020/12/03 13:09:09;;;;;;;1.42;1.33;;;18.90;67.20;;;;;;5028455;28;20157;-54
2020/12/03 13:11:36;;;;;;;2.95;1.45;;;18.90;66.90;;;;;;5025808;28;20489;-53
2020/12/03 13:14:05;;;;;;;1.52;1.42;;;18.90;67.10;;;;;;5028733;28;20037;-55
2020/12/03 13:16:31;;;;;;;3.03;1.40;;;18.90;67.00;;;;;;5024983;28;20033;-56
2020/12/03 13:18:56;;;;;;;5.07;1.55;;;18.90;66.90;;;;;;5034322;28;20041;-54
2020/12/03 13:21:22;;;;;;;1.60;1.48;;;18.90;67.30;;;;;;5046518;28;20041;-56
2020/12/03 13:23:48;;;;;;;2.13;1.42;;;18.90;67.00;;;;;;5025855;28;20037;-56
2020/12/03 13:26:16;;;;;;;1.98;1.30;;;18.80;67.00;;;;;;5028593;28;20136;-57
2020/12/03 13:28:42;;;;;;;1.63;1.30;;;18.80;66.90;;;;;;5027671;28;20507;-56
2020/12/03 13:31:08;;;;;;;1.40;1.30;;;18.80;67.10;;;;;;5026976;28;20053;-56
2020/12/03 13:33:33;;;;;;;1.60;1.50;;;18.80;66.90;;;;;;5027152;28;20099;-56
2020/12/03 13:35:59;;;;;;;1.58;1.48;;;18.80;66.90;;;;;;5019050;28;20515;-54
2020/12/03 13:38:25;;;;;;;3.80;1.17;;;18.80;66.80;;;;;;5016151;28;20096;-55
2020/12/03 13:40:50;;;;;;;1.23;1.13;;;18.80;66.80;;;;;;5028286;28;20045;-55
2020/12/03 13:43:16;;;;;;;1.67;1.35;;;18.90;66.80;;;;;;5008813;28;20048;-55
2020/12/03 13:45:41;;;;;;;1.60;1.50;;;19.00;66.40;;;;;;5026900;28;20091;-55
2020/12/03 13:48:07;;;;;;;1.23;1.13;;;18.90;66.50;;;;;;5024155;28;20516;-57
2020/12/03 13:50:34;;;;;;;1.20;1.10;;;18.90;66.50;;;;;;5025397;28;20433;-58
2020/12/03 13:52:59;;;;;;;1.27;1.27;;;18.90;66.40;;;;;;5029818;28;20037;-56
2020/12/03 13:55:25;;;;;;;1.50;0.98;;;18.90;66.50;;;;;;5048132;28;20184;-55
2020/12/03 13:57:50;;;;;;;1.33;0.98;;;18.90;66.60;;;;;;5019943;28;20052;-57
2020/12/03 14:00:16;;;;;;;1.60;1.10;;;18.90;66.70;;;;;;5040029;28;20040;-58
2020/12/03 14:02:42;;;;;;;4.57;1.10;;;18.90;66.60;;;;;;5042953;28;20046;-54
2020/12/03 14:05:07;;;;;;;1.70;1.10;;;18.90;66.40;;;;;;5044953;28;20531;-55
2020/12/03 14:07:33;;;;;;;2.03;1.02;;;19.00;66.50;;;;;;5045725;28;20140;-58
2020/12/03 14:09:58;;;;;;;1.00;0.90;;;18.90;66.40;;;;;;5036199;28;20106;-57
2020/12/03 14:12:24;;;;;;;1.00;0.90;;;18.90;66.60;;;;;;5042740;28;20411;-58
2020/12/03 14:14:50;;;;;;;0.82;0.82;;;18.90;66.50;;;;;;5033937;28;20049;-57
2020/12/03 14:17:15;;;;;;;0.70;0.70;;;19.00;66.40;;;;;;5024378;28;20094;-54
2020/12/03 14:19:41;;;;;;;0.73;0.73;;;18.90;66.30;;;;;;5029685;28;20443;-55
2020/12/03 14:22:08;;;;;;;1.13;1.10;;;18.90;66.40;;;;;;5022129;28;20041;-58
2020/12/03 14:24:35;;;;;;;1.00;1.00;;;18.90;66.50;;;;;;5017210;28;20137;-56
2020/12/03 14:27:01;;;;;;;1.65;1.10;;;18.90;66.40;;;;;;5015718;28;20049;-55
2020/12/03 14:29:27;;;;;;;4.07;1.02;;;19.00;66.40;;;;;;5046214;28;20045;-55
2020/12/03 14:31:52;;;;;;;1.10;0.93;;;19.00;66.30;;;;;;5013731;28;20051;-56
2020/12/03 14:34:18;;;;;;;0.82;0.80;;;18.90;66.30;;;;;;5040368;28;20474;-57
2020/12/03 14:36:44;;;;;;;1.10;1.00;;;18.90;66.30;;;;;;5034463;28;20053;-58
2020/12/03 14:39:09;;;;;;;1.45;0.93;;;18.90;66.40;;;;;;5020011;28;20042;-55
2020/12/03 14:41:35;;;;;;;0.75;0.70;;;18.90;66.30;;;;;;5036873;28;20052;-55
2020/12/03 14:44:00;;;;;;;1.00;1.00;;;18.90;66.30;;;;;;5047049;28;20048;-55
2020/12/03 14:46:27;;;;;;;1.10;1.00;;;18.90;66.10;;;;;;5031277;28;20036;-55
2020/12/03 14:48:53;;;;;;;0.65;0.65;;;19.00;66.10;;;;;;5033146;28;20096;-56
2020/12/03 14:51:18;;;;;;;0.95;0.80;;;19.00;66.00;;;;;;5041953;28;20041;-57
2020/12/03 14:53:44;;;;;;;0.90;0.90;;;19.00;65.90;;;;;;5044761;28;20044;-58
2020/12/03 14:56:10;;;;;;;0.70;0.65;;;19.00;65.90;;;;;;5044126;28;20044;-57
2020/12/03 14:58:36;;;;;;;0.70;0.65;;;19.00;65.90;;;;;;5044544;28;20044;-54
2020/12/03 15:01:06;;;;;;;4.22;0.73;;;18.90;66.30;;;;;;5064365;28;20500;-58
2020/12/03 15:03:32;;;;;;;2.20;0.70;;;19.00;65.90;;;;;;5022786;28;20041;-55
2020/12/03 15:05:58;;;;;;;1.10;0.88;;;18.90;65.90;;;;;;5016038;28;20115;-53
2020/12/03 15:08:24;;;;;;;3.65;0.90;;;19.00;66.00;;;;;;5017103;28;20034;-55
2020/12/03 15:10:55;;;;;;;0.70;0.60;;;19.00;65.90;;;;;;5029772;28;20060;-53
2020/12/03 15:13:20;;;;;;;2.25;0.63;;;18.90;66.10;;;;;;5046124;28;20435;-54
2020/12/03 15:15:47;;;;;;;0.90;0.73;;;18.90;66.40;;;;;;5034157;28;20583;-54
2020/12/03 15:18:13;;;;;;;0.77;0.70;;;18.80;66.40;;;;;;5037116;28;20204;-54
2020/12/03 15:20:39;;;;;;;0.77;0.60;;;18.90;66.80;;;;;;5041707;28;20041;-54
2020/12/03 15:23:05;;;;;;;3.33;0.80;;;18.90;66.40;;;;;;5045127;28;20566;-54
2020/12/03 15:25:31;;;;;;;1.38;1.05;;;18.80;66.50;;;;;;5044943;28;20068;-55
2020/12/03 15:27:56;;;;;;;2.88;2.53;;;18.80;66.70;;;;;;5035558;28;20068;-56
2020/12/03 15:30:22;;;;;;;5.07;4.68;;;18.80;66.60;;;;;;5039107;28;20044;-57
2020/12/03 15:32:50;;;;;;;3.80;3.50;;;18.80;66.60;;;;;;5041693;28;20049;-56
2020/12/03 15:35:17;;;;;;;3.78;3.15;;;18.90;66.50;;;;;;5046394;28;20492;-57
2020/12/03 15:37:43;;;;;;;3.42;3.13;;;18.90;66.50;;;;;;5028276;28;20050;-58
2020/12/03 15:40:09;;;;;;;3.08;2.80;;;18.90;66.40;;;;;;5024173;28;20036;-56
2020/12/03 15:42:35;;;;;;;4.97;2.60;;;18.90;66.50;;;;;;5022193;28;20049;-58
2020/12/03 15:45:00;;;;;;;4.60;3.10;;;18.90;66.60;;;;;;5053208;28;20095;-55
2020/12/03 15:47:27;;;;;;;3.55;3.05;;;18.90;66.50;;;;;;5027545;28;20064;-55
2020/12/03 15:49:53;;;;;;;2.30;2.10;;;18.90;66.40;;;;;;5052313;28;20041;-53
2020/12/03 15:52:18;;;;;;;3.50;2.60;;;18.90;66.30;;;;;;5027011;28;20099;-53
2020/12/03 15:54:44;;;;;;;4.50;2.40;;;19.00;66.30;;;;;;5026499;28;20047;-54
2020/12/03 15:57:10;;;;;;;3.03;2.50;;;19.00;66.10;;;;;;5025699;28;20052;-53
2020/12/03 15:59:36;;;;;;;2.80;2.28;;;19.00;66.10;;;;;;5025809;28;20041;-51
2020/12/03 16:02:02;;;;;;;4.00;2.50;;;19.00;66.40;;;;;;5043592;28;20069;-56
2020/12/03 16:04:32;;;;;;;6.03;2.28;;;19.00;66.20;;;;;;5030174;28;20053;-56
2020/12/03 16:06:58;;;;;;;2.25;1.90;;;19.00;66.10;;;;;;5035296;28;20088;-53
2020/12/03 16:09:24;;;;;;;3.75;2.50;;;19.00;66.20;;;;;;5049746;28;20032;-58
2020/12/03 16:11:49;;;;;;;2.78;2.50;;;19.00;65.90;;;;;;5053777;28;20063;-49
2020/12/03 16:14:15;;;;;;;3.58;2.30;;;19.00;65.80;;;;;;5050981;28;20068;-56
2020/12/03 16:16:41;;;;;;;6.63;2.30;;;19.00;65.70;;;;;;5047531;28;20049;-54
2020/12/03 16:19:06;;;;;;;2.22;2.03;;;19.00;65.60;;;;;;5034672;28;20039;-59
2020/12/03 16:21:33;;;;;;;2.33;2.13;;;19.10;65.70;;;;;;5043549;28;20118;-57
2020/12/03 16:23:59;;;;;;;3.38;2.08;;;19.10;65.60;;;;;;5048744;28;20048;-53
2020/12/03 16:26:24;;;;;;;2.92;1.63;;;19.10;65.60;;;;;;5051727;28;20471;-52
2020/12/03 16:28:50;;;;;;;2.08;1.98;;;19.10;65.50;;;;;;5045782;28;20050;-57
2020/12/03 16:31:15;;;;;;;2.58;1.80;;;19.10;65.40;;;;;;5052562;28;20041;-54
2020/12/03 16:33:42;;;;;;;3.38;1.90;;;19.20;65.10;;;;;;5048486;28;20534;-52
2020/12/03 16:36:11;;;;;;;6.70;5.47;;;19.20;65.20;;;;;;5043379;28;20049;-55
2020/12/03 16:38:37;;;;;;;11.43;9.02;;;19.20;65.30;;;;;;5047998;28;20496;-52
2020/12/03 16:41:04;;;;;;;21.10;14.10;;;19.20;65.30;;;;;;5049215;28;20048;-56
2020/12/03 16:43:30;;;;;;;19.05;13.90;;;19.20;65.20;;;;;;5049511;28;20448;-57
2020/12/03 16:45:56;;;;;;;17.80;12.93;;;19.20;65.10;;;;;;5048889;28;20045;-56
2020/12/03 16:48:21;;;;;;;17.70;13.65;;;19.20;65.10;;;;;;5049579;28;20033;-58
2020/12/03 16:50:47;;;;;;;16.33;12.43;;;19.20;65.10;;;;;;5048220;28;20520;-53
2020/12/03 16:53:14;;;;;;;16.92;12.07;;;19.20;65.00;;;;;;5048589;28;20033;-52
2020/12/03 16:55:39;;;;;;;16.85;11.95;;;19.20;64.80;;;;;;5051805;28;20435;-50
2020/12/03 16:58:06;;;;;;;13.77;10.88;;;19.20;64.80;;;;;;5050655;28;20048;-51
2020/12/03 17:00:31;;;;;;;18.60;11.18;;;19.20;64.90;;;;;;5046868;28;20045;-54
2020/12/03 17:02:57;;;;;;;13.90;10.18;;;19.30;65.30;;;;;;5049260;28;20051;-54
2020/12/03 17:05:22;;;;;;;14.77;10.63;;;19.30;64.80;;;;;;5049685;28;20096;-54
2020/12/03 17:07:50;;;;;;;12.93;10.55;;;19.30;64.90;;;;;;5047823;28;20097;-54
2020/12/03 17:10:15;;;;;;;12.60;10.32;;;19.30;64.90;;;;;;5051937;28;20049;-49
2020/12/03 17:12:41;;;;;;;15.57;10.90;;;19.30;64.70;;;;;;5050270;28;20041;-51
2020/12/03 17:15:07;;;;;;;13.63;10.23;;;19.30;64.50;;;;;;5047656;28;20045;-48
2020/12/03 17:17:32;;;;;;;12.32;10.30;;;19.30;64.90;;;;;;5045414;28;20149;-54
2020/12/03 17:19:58;;;;;;;12.75;10.30;;;19.40;65.00;;;;;;5046770;28;20045;-52
2020/12/03 17:22:23;;;;;;;10.85;9.15;;;19.40;64.60;;;;;;5048815;28;20045;-53
2020/12/03 17:24:49;;;;;;;12.50;9.95;;;19.40;64.50;;;;;;5045075;28;20056;-47
2020/12/03 17:27:15;;;;;;;13.18;8.48;;;19.40;64.40;;;;;;5045492;28;20064;-51
2020/12/03 17:29:40;;;;;;;10.93;8.73;;;19.50;64.40;;;;;;5026548;28;20417;-53
2020/12/03 17:32:06;;;;;;;10.27;8.30;;;19.50;64.20;;;;;;5024963;28;20068;-51
2020/12/03 17:34:32;;;;;;;10.30;7.68;;;19.50;64.00;;;;;;5041460;28;20041;-54
2020/12/03 17:37:03;;;;;;;10.25;8.60;;;19.50;63.80;;;;;;5047691;28;20553;-55
2020/12/03 17:39:28;;;;;;;9.13;8.00;;;19.50;63.90;;;;;;5042800;28;20079;-54
2020/12/03 17:41:54;;;;;;;11.15;8.15;;;19.50;64.00;;;;;;5040570;28;20037;-50
2020/12/03 17:44:19;;;;;;;8.63;7.78;;;19.50;63.80;;;;;;5044489;28;20045;-52
2020/12/03 17:46:45;;;;;;;8.80;7.65;;;19.50;63.80;;;;;;5045683;28;20047;-51
2020/12/03 17:49:11;;;;;;;9.32;7.72;;;19.50;63.60;;;;;;5030711;28;20036;-53
2020/12/03 17:51:36;;;;;;;15.00;8.18;;;19.50;63.90;;;;;;5045587;28;20055;-48
2020/12/03 17:54:02;;;;;;;8.32;7.15;;;19.50;63.60;;;;;;5053210;28;21263;-49
2020/12/03 17:56:27;;;;;;;7.80;6.55;;;19.40;63.70;;;;;;5042734;28;20043;-51
2020/12/03 17:58:53;;;;;;;8.10;7.07;;;19.50;63.60;;;;;;5045235;28;20037;-53
2020/12/03 18:01:18;;;;;;;7.13;6.50;;;19.40;63.80;;;;;;5045884;28;20051;-54
2020/12/03 18:03:46;;;;;;;7.57;6.82;;;19.40;63.90;;;;;;5043272;28;20057;-51
2020/12/03 18:06:13;;;;;;;7.80;7.07;;;19.40;64.00;;;;;;5046218;28;20756;-51
2020/12/03 18:08:39;;;;;;;7.85;7.03;;;19.40;64.00;;;;;;5046832;28;20041;-50
2020/12/03 18:11:04;;;;;;;12.63;6.47;;;19.30;64.30;;;;;;5039890;28;20041;-55
2020/12/03 18:13:30;;;;;;;8.45;6.03;;;19.40;64.90;;;;;;5022977;28;20794;-54
2020/12/03 18:15:56;;;;;;;7.28;5.85;;;19.40;64.40;;;;;;5038913;28;20065;-56
2020/12/03 18:18:21;;;;;;;8.35;6.22;;;19.40;63.80;;;;;;5036050;28;20048;-53
2020/12/03 18:20:47;;;;;;;6.00;5.50;;;19.40;63.70;;;;;;5040634;28;20044;-52
2020/12/03 18:23:13;;;;;;;5.78;5.28;;;19.30;63.90;;;;;;5044195;28;20061;-52
2020/12/03 18:25:38;;;;;;;6.32;5.82;;;19.40;63.90;;;;;;5042317;28;20503;-55
2020/12/03 18:28:04;;;;;;;5.53;5.10;;;19.40;64.60;;;;;;5048307;28;20182;-50
2020/12/03 18:30:29;;;;;;;6.50;5.90;;;19.40;63.50;;;;;;4690286;28;9999790;-47
2020/12/03 18:32:56;;;;;;;5.57;5.18;;;19.40;63.60;;;;;;5036586;28;20045;-54
2020/12/03 18:35:22;;;;;;;5.72;5.07;;;19.40;63.50;;;;;;5040544;28;20874;-54
2020/12/03 18:37:51;;;;;;;5.40;5.00;;;19.40;63.30;;;;;;5042327;28;20126;-53
2020/12/03 18:40:17;;;;;;;5.68;4.90;;;19.40;63.20;;;;;;5044519;28;20041;-53
2020/12/03 18:42:43;;;;;;;5.75;5.25;;;19.40;63.40;;;;;;5040600;28;20151;-49
2020/12/03 18:45:08;;;;;;;5.53;4.70;;;19.40;63.90;;;;;;5032204;28;20053;-51
2020/12/03 18:47:34;;;;;;;5.78;5.28;;;19.40;65.00;;;;;;5038719;28;20055;-51
2020/12/03 18:50:00;;;;;;;6.05;5.53;;;19.30;65.20;;;;;;5038786;28;20064;-53
2020/12/03 18:52:25;;;;;;;5.82;4.90;;;19.30;65.50;;;;;;5041663;28;20056;-49
2020/12/03 18:54:51;;;;;;;5.00;4.60;;;19.30;65.80;;;;;;5039614;28;20055;-53
2020/12/03 18:57:17;;;;;;;5.65;5.15;;;19.20;65.70;;;;;;5038814;28;20532;-46
2020/12/03 18:59:43;;;;;;;5.53;4.93;;;19.20;65.90;;;;;;5046772;28;20504;-52
2020/12/03 19:02:09;;;;;;;5.07;4.57;;;19.20;66.00;;;;;;5040068;28;20135;-47
2020/12/03 19:04:35;;;;;;;4.95;4.55;;;19.10;66.30;;;;;;5040815;28;20175;-52
2020/12/03 19:07:01;;;;;;;6.03;5.45;;;19.20;66.50;;;;;;5049494;28;20513;-51
2020/12/03 19:09:27;;;;;;;5.15;4.65;;;19.20;66.50;;;;;;5040902;28;20041;-50
2020/12/03 19:11:54;;;;;;;4.95;4.40;;;19.10;66.60;;;;;;5040359;28;20048;-49
2020/12/03 19:14:20;;;;;;;7.35;4.68;;;19.10;66.80;;;;;;5038476;28;20501;-52
2020/12/03 19:16:49;;;;;;;5.72;3.90;;;19.10;66.90;;;;;;5038754;28;20048;-51
2020/12/03 19:19:15;;;;;;;4.90;4.55;;;19.10;66.90;;;;;;5041920;28;20045;-53
2020/12/03 19:21:41;;;;;;;4.72;4.40;;;19.10;66.90;;;;;;5021640;28;20091;-50
2020/12/03 19:24:06;;;;;;;7.82;4.95;;;19.10;67.00;;;;;;5039963;28;20053;-53
2020/12/03 19:26:32;;;;;;;4.18;3.88;;;19.10;67.00;;;;;;5040353;28;20041;-51
2020/12/03 19:28:58;;;;;;;4.97;4.50;;;19.10;67.20;;;;;;5038301;28;20065;-48
2020/12/03 19:31:25;;;;;;;4.38;3.97;;;19.10;67.20;;;;;;5041485;28;20120;-45
2020/12/03 19:33:51;;;;;;;4.70;4.07;;;19.10;67.10;;;;;;5039817;28;20044;-49
2020/12/03 19:36:17;;;;;;;4.00;3.72;;;19.10;67.20;;;;;;5038215;28;20076;-53
2020/12/03 19:38:43;;;;;;;5.85;4.00;;;19.20;67.00;;;;;;5038026;28;20044;-53
2020/12/03 19:41:08;;;;;;;5.93;3.83;;;19.20;67.00;;;;;;5019184;28;20040;-47
2020/12/03 19:43:34;;;;;;;4.65;3.60;;;19.20;67.10;;;;;;5039192;28;20110;-49
2020/12/03 19:46:00;;;;;;;5.50;3.28;;;19.30;66.80;;;;;;5024449;28;20047;-50
2020/12/03 19:48:25;;;;;;;3.88;3.50;;;19.20;66.90;;;;;;5042010;28;20084;-45
2020/12/03 19:50:51;;;;;;;4.25;3.22;;;19.20;67.10;;;;;;5039250;28;20531;-51
2020/12/03 19:53:17;;;;;;;7.82;3.05;;;19.20;66.90;;;;;;5039820;28;20076;-55
2020/12/03 19:55:44;;;;;;;4.95;2.97;;;19.30;67.10;;;;;;5024896;28;20460;-54
2020/12/03 19:58:09;;;;;;;3.15;2.85;;;19.40;66.80;;;;;;5042044;28;20210;-56
2020/12/03 20:00:35;;;;;;;3.22;3.00;;;19.30;66.60;;;;;;5041930;28;20486;-56
2020/12/03 20:03:01;;;;;;;3.10;2.80;;;19.30;66.60;;;;;;5037020;28;20041;-54
2020/12/03 20:05:27;;;;;;;5.03;3.28;;;19.30;67.40;;;;;;5042085;28;20975;-56
2020/12/03 20:07:52;;;;;;;7.22;3.40;;;19.30;66.60;;;;;;5041086;28;20041;-58
2020/12/03 20:10:18;;;;;;;5.07;3.47;;;19.30;66.70;;;;;;5043775;28;20535;-57
2020/12/03 20:12:44;;;;;;;3.20;2.60;;;19.30;66.60;;;;;;5045440;28;20044;-51
2020/12/03 20:15:10;;;;;;;3.03;2.83;;;19.40;66.60;;;;;;5043695;28;20060;-54
2020/12/03 20:17:36;;;;;;;2.90;2.40;;;19.40;66.60;;;;;;5028904;28;20709;-56
2020/12/03 20:20:02;;;;;;;5.03;2.72;;;19.40;66.50;;;;;;5024057;28;20119;-55
2020/12/03 20:22:31;;;;;;;2.30;2.20;;;19.30;66.50;;;;;;5021899;28;20033;-52
2020/12/03 20:24:57;;;;;;;3.53;2.53;;;19.30;66.70;;;;;;5035930;28;20106;-56